Time;durP1;ratioP1;P1;durP2;ratioP2;P2;SDS_P1;SDS_P2;PMS_P1;PMS_P2;Temp;Humidity;BMP_temperature;BMP_pressure;BME280_temperature;BME280_humidity;BME280_pressure;Samples;Min_cycle;Max_cycle;Signal;HPM_P1;HPM_P2
2023/04/26 00:00:07;;;;;;;7.25;4.28;;;;;;;13.90;74.17;98226.88;5089546;28;20115;-50
2023/04/26 00:02:34;;;;;;;6.07;4.35;;;;;;;13.85;74.44;98221.16;5089267;28;20044;-55
2023/04/26 00:05:02;;;;;;;7.80;3.90;;;;;;;13.81;74.85;98213.63;5069540;28;20036;-52
2023/04/26 00:07:30;;;;;;;8.73;4.40;;;;;;;13.77;75.15;98209.56;5088732;28;20047;-53
2023/04/26 00:09:56;;;;;;;5.70;3.63;;;;;;;13.72;75.55;98212.50;5089167;28;20356;-53
2023/04/26 00:12:22;;;;;;;5.97;4.00;;;;;;;13.68;76.25;98207.59;5070539;28;20048;-53
2023/04/26 00:14:48;;;;;;;6.70;4.97;;;;;;;13.64;76.23;98198.31;5088328;28;20415;-53
2023/04/26 00:17:14;;;;;;;7.20;4.80;;;;;;;13.61;76.68;98194.13;5109487;27;20470;-56
2023/04/26 00:19:41;;;;;;;8.18;4.15;;;;;;;13.44;76.69;98171.84;5097058;28;20043;-53
2023/04/26 00:22:07;;;;;;;7.18;4.10;;;;;;;13.60;77.16;98197.72;5097235;28;20591;-55
2023/04/26 00:24:34;;;;;;;8.75;4.10;;;;;;;13.62;77.16;98193.19;5095334;28;20047;-52
2023/04/26 00:27:00;;;;;;;5.57;4.05;;;;;;;13.60;77.18;98194.25;5105777;28;20709;-53
2023/04/26 00:29:26;;;;;;;5.93;3.50;;;;;;;13.49;77.18;98180.19;5076110;28;20059;-52
2023/04/26 00:31:52;;;;;;;5.10;3.33;;;;;;;13.53;76.99;98189.47;5070191;28;20063;-54
2023/04/26 00:34:18;;;;;;;7.60;3.15;;;;;;;13.46;77.29;98177.75;5070636;28;20040;-53
2023/04/26 00:36:44;;;;;;;6.97;3.17;;;;;;;13.16;77.26;98143.38;5069916;28;20050;-56
2023/04/26 00:39:11;;;;;;;5.57;3.50;;;;;;;13.44;77.69;98177.06;5088736;28;20580;-55
2023/04/26 00:41:37;;;;;;;4.68;3.20;;;;;;;13.45;77.94;98178.69;5088102;28;20618;-56
2023/04/26 00:44:03;;;;;;;5.13;3.55;;;;;;;13.41;78.03;98165.97;5103401;28;20032;-55
2023/04/26 00:46:30;;;;;;;6.22;3.67;;;;;;;13.41;77.99;98165.97;5088138;28;20147;-54
2023/04/26 00:48:56;;;;;;;5.82;3.65;;;;;;;13.40;78.46;98170.34;5104036;28;20028;-54
2023/04/26 00:51:22;;;;;;;6.47;4.60;;;;;;;13.41;78.77;98163.38;5069246;28;20043;-54
2023/04/26 00:53:48;;;;;;;7.15;4.30;;;;;;;13.21;79.54;98127.38;5088523;28;20040;-57
2023/04/26 00:56:15;;;;;;;7.20;4.53;;;;;;;13.37;80.06;98160.16;5103493;28;20044;-55
2023/04/26 00:58:42;;;;;;;8.68;4.78;;;;;;;13.40;80.32;98154.69;5053469;28;20040;-51
2023/04/26 01:01:08;;;;;;;6.97;4.50;;;;;;;13.43;80.69;98154.50;5087908;28;20036;-51
2023/04/26 01:03:37;;;;;;;8.13;5.03;;;;;;;13.45;80.47;98154.41;5086437;28;20063;-58
2023/04/26 01:06:03;;;;;;;10.70;5.03;;;;;;;13.44;80.92;98153.56;5086396;28;20047;-55
2023/04/26 01:08:29;;;;;;;7.43;4.70;;;;;;;13.46;80.52;98156.88;5103614;28;20538;-53
2023/04/26 01:10:57;;;;;;;6.88;4.38;;;;;;;13.41;80.39;98145.94;5087704;28;20044;-51
2023/04/26 01:13:24;;;;;;;6.15;4.30;;;;;;;13.42;80.68;98138.94;5086677;28;20035;-57
2023/04/26 01:15:51;;;;;;;6.60;4.40;;;;;;;13.42;80.32;98136.31;5087351;28;20128;-54
2023/04/26 01:18:17;;;;;;;6.38;4.43;;;;;;;13.25;80.50;98106.19;5086477;28;20048;-56
2023/04/26 01:20:45;;;;;;;7.10;4.43;;;;;;;13.37;80.33;98131.44;5087828;28;20063;-49
2023/04/26 01:23:11;;;;;;;7.80;4.40;;;;;;;13.40;80.29;98130.38;5103915;28;20181;-54
2023/04/26 01:25:38;;;;;;;8.60;4.35;;;;;;;13.36;80.01;98121.09;5085987;28;20047;-49
2023/04/26 01:28:04;;;;;;;5.93;4.57;;;;;;;13.38;80.28;98133.09;5086646;28;20245;-54
2023/04/26 01:30:30;;;;;;;8.07;4.70;;;;;;;13.38;80.28;98122.66;5083369;28;20473;-52
2023/04/26 01:32:56;;;;;;;7.07;5.10;;;;;;;13.38;80.42;98114.84;5067499;28;20131;-53
2023/04/26 01:35:25;;;;;;;8.77;4.60;;;;;;;13.30;80.41;98100.63;5066773;28;20044;-59
2023/04/26 01:37:51;;;;;;;8.30;4.38;;;;;;;13.33;80.49;98109.09;5084991;28;20036;-55
2023/04/26 01:40:17;;;;;;;7.47;4.50;;;;;;;13.18;80.80;98081.47;5086637;28;20040;-52
2023/04/26 01:42:43;;;;;;;7.32;4.60;;;;;;;13.18;80.94;98083.25;5086587;28;20180;-54
2023/04/26 01:45:10;;;;;;;7.07;4.70;;;;;;;13.33;81.30;98098.66;5046395;28;20059;-51
2023/04/26 01:47:54;;;;;;;8.10;4.70;;;;;;;13.30;81.41;98092.81;5084328;28;20036;-54
2023/04/26 01:50:20;;;;;;;4.97;4.18;;;;;;;13.28;81.25;98100.78;5085342;28;20101;-55
2023/04/26 01:52:46;;;;;;;6.03;3.92;;;;;;;13.25;81.41;98084.47;5069479;28;20094;-55
2023/04/26 01:55:12;;;;;;;7.80;4.18;;;;;;;13.14;81.73;98061.75;5087764;28;20089;-52
2023/04/26 01:57:38;;;;;;;6.68;4.63;;;;;;;13.26;81.80;98086.97;5071455;28;20040;-54
2023/04/26 02:00:06;;;;;;;6.15;4.38;;;;;;;13.28;81.71;98085.09;5066432;28;20039;-52
2023/04/26 02:02:40;;;;;;;5.95;4.20;;;;;;;13.26;81.83;98080.94;5072459;28;20048;-54
2023/04/26 02:05:10;;;;;;;9.65;4.90;;;;;;;13.28;82.15;98081.66;5087051;28;20606;-57
2023/04/26 02:07:36;;;;;;;9.60;4.78;;;;;;;13.23;82.09;98070.72;5043082;28;20040;-53
2023/04/26 02:10:03;;;;;;;7.32;4.70;;;;;;;13.23;82.12;98068.09;5069534;28;20044;-54
2023/04/26 02:12:31;;;;;;;7.65;4.80;;;;;;;13.17;82.53;98060.72;5069871;28;20132;-57
2023/04/26 02:14:59;;;;;;;8.57;5.63;;;;;;;12.85;83.10;98019.44;5036297;28;20093;-54
2023/04/26 02:17:36;;;;;;;9.43;6.28;;;;;;;13.12;83.53;98061.88;5081738;28;20522;-56
2023/04/26 02:20:03;;;;;;;14.15;6.22;;;;;;;13.11;83.80;98065.41;5107205;28;20050;-55
2023/04/26 02:22:32;;;;;;;13.32;6.57;;;;;;;13.00;83.80;98043.59;5091496;28;20046;-56
2023/04/26 02:24:57;;;;;;;10.60;6.25;;;;;;;13.09;83.80;98058.59;5089567;28;20048;-54
2023/04/26 02:27:31;;;;;;;12.52;6.78;;;;;;;12.94;84.54;98039.63;5106463;28;20147;-56
2023/04/26 02:29:58;;;;;;;12.63;6.32;;;;;;;12.79;84.62;98014.63;5073335;28;20503;-55
2023/04/26 02:32:25;;;;;;;10.63;6.30;;;;;;;12.92;84.65;98027.66;5039820;28;20380;-54
2023/04/26 02:34:51;;;;;;;10.75;6.05;;;;;;;13.05;84.77;98044.94;5073231;28;20105;-54
2023/04/26 02:37:17;;;;;;;8.57;5.68;;;;;;;13.07;85.19;98044.84;5088131;28;20040;-56
2023/04/26 02:39:44;;;;;;;10.82;6.63;;;;;;;13.05;85.52;98042.34;5071937;28;20043;-56
2023/04/26 02:42:11;;;;;;;11.18;6.45;;;;;;;13.02;85.86;98041.72;5089852;28;20400;-54
2023/04/26 02:44:38;;;;;;;7.57;5.32;;;;;;;13.02;86.01;98036.50;5072936;28;20148;-56
2023/04/26 02:47:05;;;;;;;8.50;5.80;;;;;;;13.00;86.12;98036.59;5076361;28;20512;-52
2023/04/26 02:49:31;;;;;;;7.25;5.63;;;;;;;12.94;86.53;98029.19;5054183;28;20645;-54
2023/04/26 02:51:58;;;;;;;9.65;5.95;;;;;;;12.89;86.67;98028.69;5103589;28;20415;-55
2023/04/26 02:54:24;;;;;;;9.65;5.75;;;;;;;12.90;87.57;98026.91;5106580;28;20330;-54
2023/04/26 02:56:51;;;;;;;10.57;5.82;;;;;;;12.75;87.55;98007.97;5071619;28;20050;-54
2023/04/26 02:59:17;;;;;;;7.80;5.63;;;;;;;12.88;88.31;98032.22;5090739;28;20036;-52
2023/04/26 03:01:43;;;;;;;10.48;6.25;;;;;;;12.87;87.83;98030.59;5051630;28;20051;-55
2023/04/26 03:04:09;;;;;;;10.98;6.10;;;;;;;12.89;87.93;98030.47;5088914;28;20036;-51
2023/04/26 03:06:36;;;;;;;12.77;6.70;;;;;;;12.87;88.37;98029.75;5071597;28;20388;-55
2023/04/26 03:09:04;;;;;;;8.15;6.03;;;;;;;12.87;88.46;98027.16;5087082;28;20415;-55
2023/04/26 03:11:30;;;;;;;12.77;8.13;;;;;;;12.85;88.60;98015.97;5106056;28;20420;-53
2023/04/26 03:13:57;;;;;;;13.40;8.18;;;;;;;12.82;88.84;98021.41;5106057;28;20181;-58
2023/04/26 03:16:23;;;;;;;12.35;7.75;;;;;;;12.79;89.67;98013.78;5104885;28;20508;-56
2023/04/26 03:18:49;;;;;;;10.10;7.72;;;;;;;12.81;89.88;98012.75;5088591;28;20073;-55
2023/04/26 03:21:16;;;;;;;9.02;6.90;;;;;;;12.80;89.85;98013.69;5087415;28;20127;-57
2023/04/26 03:23:42;;;;;;;12.13;8.02;;;;;;;12.78;89.83;98012.97;5090440;28;20515;-56
2023/04/26 03:26:09;;;;;;;18.77;9.77;;;;;;;12.77;90.22;98007.88;5105449;28;20042;-56
2023/04/26 03:28:35;;;;;;;11.95;8.77;;;;;;;12.76;90.68;98012.25;5089604;28;20046;-53
2023/04/26 03:31:02;;;;;;;11.02;8.60;;;;;;;12.75;91.00;98010.56;5071822;28;20067;-52
2023/04/26 03:33:30;;;;;;;11.23;7.85;;;;;;;12.61;91.58;97988.06;5105494;28;20038;-53
2023/04/26 03:35:56;;;;;;;13.13;8.93;;;;;;;12.75;91.74;98005.38;5069270;28;20043;-54
2023/04/26 03:38:23;;;;;;;10.80;8.50;;;;;;;12.59;92.13;97976.09;5055138;28;20044;-57
2023/04/26 03:40:50;;;;;;;11.30;8.50;;;;;;;12.77;92.45;98003.47;5105545;28;20506;-55
2023/04/26 03:43:16;;;;;;;12.57;9.05;;;;;;;12.79;92.50;98006.81;5088477;28;20114;-53
2023/04/26 03:45:47;;;;;;;9.60;8.05;;;;;;;12.74;92.63;97994.09;5104732;28;20087;-53
2023/04/26 03:48:13;;;;;;;9.82;7.53;;;;;;;12.81;92.88;97997.13;5088645;28;20120;-58
2023/04/26 03:50:39;;;;;;;7.25;5.88;;;;;;;12.81;92.91;97998.88;5051010;28;20072;-58
2023/04/26 03:53:06;;;;;;;8.68;6.50;;;;;;;12.74;92.88;97983.66;5087311;28;20579;-55
2023/04/26 03:55:32;;;;;;;9.07;6.55;;;;;;;12.79;92.84;97996.38;5070583;28;20131;-56
2023/04/26 03:57:58;;;;;;;7.95;6.05;;;;;;;12.81;93.38;97991.91;5087325;28;20240;-59
2023/04/26 04:00:25;;;;;;;10.95;6.53;;;;;;;12.84;93.07;97993.44;5071564;28;20047;-55
2023/04/26 04:02:51;;;;;;;8.98;5.82;;;;;;;12.83;92.98;97991.78;5104992;28;20040;-51
2023/04/26 04:05:23;;;;;;;6.80;4.80;;;;;;;12.82;93.17;97993.56;5054596;28;20487;-59
2023/04/26 04:07:50;;;;;;;6.75;5.20;;;;;;;12.80;93.91;97992.84;5104766;28;20051;-57
2023/04/26 04:10:16;;;;;;;5.57;4.35;;;;;;;12.71;94.02;97970.03;5104408;27;20529;-56
2023/04/26 04:12:45;;;;;;;6.47;3.72;;;;;;;12.73;93.76;97965.50;5071421;28;20054;-53
2023/04/26 04:15:11;;;;;;;6.57;4.03;;;;;;;12.88;93.78;97979.25;5088992;28;20411;-55
2023/04/26 04:17:42;;;;;;;8.75;3.95;;;;;;;12.93;93.89;97984.97;5104491;28;20482;-50
2023/04/26 04:20:10;;;;;;;6.13;4.20;;;;;;;12.92;94.11;97984.16;5070943;28;20154;-52
2023/04/26 04:22:38;;;;;;;5.85;4.35;;;;;;;12.93;94.12;97980.59;5070393;28;20139;-52
2023/04/26 04:25:06;;;;;;;6.10;3.95;;;;;;;12.94;93.85;97982.25;5037930;28;20044;-51
2023/04/26 04:27:32;;;;;;;5.25;4.25;;;;;;;13.01;94.00;97980.88;5053954;28;20040;-56
2023/04/26 04:30:02;;;;;;;6.25;4.05;;;;;;;13.05;94.32;97981.50;5103917;28;20126;-55
2023/04/26 04:32:31;;;;;;;8.38;4.13;;;;;;;13.10;93.97;97982.00;5087026;28;20040;-54
2023/04/26 04:34:58;;;;;;;6.18;3.75;;;;;;;13.15;94.12;97979.91;5053503;28;20038;-56
2023/04/26 04:37:25;;;;;;;5.03;3.08;;;;;;;13.21;93.63;97976.03;5103490;27;20113;-53
2023/04/26 04:39:52;;;;;;;5.55;3.88;;;;;;;13.26;93.69;97976.53;5069307;28;20040;-55
2023/04/26 04:42:18;;;;;;;6.90;2.92;;;;;;;13.31;93.29;97985.69;5052729;28;20125;-55
2023/04/26 04:44:45;;;;;;;6.40;3.50;;;;;;;13.38;92.64;97976.50;5087354;28;20515;-52
2023/04/26 04:47:11;;;;;;;4.70;2.42;;;;;;;13.48;92.37;97977.47;5103696;28;20189;-56
2023/04/26 04:49:38;;;;;;;5.55;3.88;;;;;;;13.59;91.86;97981.91;5088614;28;20043;-54
2023/04/26 04:52:05;;;;;;;4.60;3.42;;;;;;;13.67;91.30;97984.78;5052670;28;20071;-52
2023/04/26 04:54:33;;;;;;;5.35;2.50;;;;;;;13.68;90.66;97964.72;5082583;28;20473;-58
2023/04/26 04:57:00;;;;;;;6.78;2.60;;;;;;;13.76;89.91;97970.22;5115732;27;20097;-54
2023/04/26 04:59:27;;;;;;;4.65;2.60;;;;;;;13.84;89.79;97975.69;5104256;28;20071;-54
2023/04/26 05:01:53;;;;;;;3.55;2.55;;;;;;;13.91;88.69;97975.13;5085661;28;20075;-56
2023/04/26 05:04:19;;;;;;;3.72;2.47;;;;;;;13.99;88.04;97980.59;5087169;28;20032;-59
2023/04/26 05:06:45;;;;;;;3.88;1.95;;;;;;;14.07;87.39;97979.22;5052102;28;20036;-56
2023/04/26 05:09:11;;;;;;;5.47;2.65;;;;;;;14.15;86.73;97979.44;5056668;28;20135;-54
2023/04/26 05:11:37;;;;;;;5.32;2.58;;;;;;;14.19;86.05;97970.41;5072252;28;20051;-55
2023/04/26 05:14:04;;;;;;;7.53;3.53;;;;;;;14.26;85.39;97982.06;5090188;28;20059;-57
2023/04/26 05:16:30;;;;;;;4.72;2.63;;;;;;;14.29;85.16;97979.22;5122242;27;20043;-58
2023/04/26 05:18:58;;;;;;;6.20;2.60;;;;;;;14.34;84.77;97979.72;5079207;28;20044;-55
2023/04/26 05:21:24;;;;;;;4.05;2.40;;;;;;;14.29;84.44;97958.31;5061548;28;20035;-55
2023/04/26 05:23:50;;;;;;;4.07;2.00;;;;;;;14.41;84.51;97978.31;5097294;28;20423;-56
2023/04/26 05:26:18;;;;;;;6.07;1.90;;;;;;;14.46;84.45;97973.56;5079224;28;20426;-54
2023/04/26 05:29:02;;;;;;;4.47;2.05;;;;;;;14.50;83.69;97974.97;5095407;28;20131;-55
2023/04/26 05:31:54;;;;;;;3.95;2.05;;;;;;;14.43;83.40;97968.59;5093553;28;20040;-55
2023/04/26 05:34:43;;;;;;;6.07;2.00;;;;;;;14.51;83.30;97981.06;5074998;28;20047;-59
2023/04/26 05:37:13;;;;;;;2.67;2.00;;;;;;;14.35;83.12;97961.28;5101502;28;20040;-55
2023/04/26 05:39:39;;;;;;;4.13;1.83;;;;;;;14.51;83.34;97973.22;5059688;28;20110;-58
2023/04/26 05:42:06;;;;;;;2.38;1.60;;;;;;;14.52;83.44;97975.72;5075121;28;20048;-55
2023/04/26 05:44:31;;;;;;;4.47;1.80;;;;;;;14.51;83.38;97970.59;5099409;28;20056;-57
2023/04/26 05:46:57;;;;;;;6.75;2.22;;;;;;;14.53;83.24;97973.94;5057217;28;20515;-56
2023/04/26 05:49:25;;;;;;;2.88;1.95;;;;;;;14.56;83.38;97976.28;5077146;28;20059;-55
2023/04/26 05:51:51;;;;;;;4.32;2.40;;;;;;;14.57;83.41;97970.13;5062093;28;20069;-53
2023/04/26 05:54:17;;;;;;;5.28;2.30;;;;;;;14.58;83.39;97970.00;5064633;28;20530;-56
2023/04/26 05:56:43;;;;;;;4.43;2.05;;;;;;;14.60;83.58;97978.53;5066393;28;20422;-54
2023/04/26 05:59:11;;;;;;;7.50;2.20;;;;;;;14.47;83.77;97959.53;5062310;28;20040;-52
2023/04/26 06:01:38;;;;;;;6.40;2.75;;;;;;;14.45;83.84;97961.44;5092139;28;20585;-57
2023/04/26 06:04:04;;;;;;;5.38;2.20;;;;;;;14.59;83.86;97973.47;5083931;28;20093;-56
2023/04/26 06:06:39;;;;;;;5.97;2.22;;;;;;;14.59;83.83;97978.69;5056723;28;20063;-55
2023/04/26 06:09:05;;;;;;;5.35;1.77;;;;;;;14.60;83.47;97975.13;5089417;28;20044;-56
2023/04/26 06:11:31;;;;;;;5.55;1.90;;;;;;;14.62;83.40;97986.28;5101945;28;20039;-59
2023/04/26 06:13:57;;;;;;;2.85;1.65;;;;;;;14.57;83.25;97980.59;5083403;28;20050;-55
2023/04/26 06:16:24;;;;;;;2.85;1.67;;;;;;;14.57;83.10;97983.19;5078790;28;20082;-58
2023/04/26 06:18:50;;;;;;;3.60;1.92;;;;;;;14.57;83.17;97976.19;5067746;28;20064;-57
2023/04/26 06:21:16;;;;;;;3.03;1.80;;;;;;;14.64;82.61;97980.00;5070533;28;20077;-55
2023/04/26 06:23:42;;;;;;;4.60;2.10;;;;;;;14.76;82.58;97983.41;5080224;28;20036;-58
2023/04/26 06:26:08;;;;;;;2.97;1.70;;;;;;;14.82;82.35;97985.56;5089008;28;20034;-57
2023/04/26 06:28:35;;;;;;;5.90;2.20;;;;;;;14.90;81.77;97984.97;5037967;28;20128;-54
2023/04/26 06:31:02;;;;;;;4.13;1.80;;;;;;;14.78;81.60;97950.13;5066838;28;20038;-56
2023/04/26 06:33:29;;;;;;;6.35;1.80;;;;;;;15.04;80.98;97984.69;5078772;28;20040;-56
2023/04/26 06:35:55;;;;;;;3.78;1.70;;;;;;;14.83;80.79;97950.59;5073175;28;20372;-53
2023/04/26 06:38:21;;;;;;;3.35;1.58;;;;;;;15.04;80.48;97985.53;5087957;28;20044;-61
2023/04/26 06:40:47;;;;;;;3.88;1.80;;;;;;;15.04;80.42;97989.94;5064820;28;20063;-60
2023/04/26 06:43:13;;;;;;;1.90;1.40;;;;;;;15.06;80.03;97990.66;5075578;28;20044;-56
2023/04/26 06:45:57;;;;;;;3.40;2.03;;;;;;;15.02;79.98;97997.91;5044846;28;20051;-59
2023/04/26 06:48:23;;;;;;;7.85;1.90;;;;;;;15.02;79.90;97992.66;5060243;28;20621;-59
2023/04/26 06:50:49;;;;;;;5.32;2.25;;;;;;;15.06;80.04;97990.66;5043381;28;20146;-62
2023/04/26 06:53:15;;;;;;;6.00;1.90;;;;;;;15.06;80.36;97988.03;5071936;28;20559;-48
2023/04/26 06:55:41;;;;;;;3.05;1.75;;;;;;;14.85;80.03;97953.94;5088241;28;20036;-56
2023/04/26 06:58:07;;;;;;;2.58;1.70;;;;;;;15.03;79.73;97983.88;5060117;28;20051;-56
2023/04/26 07:00:33;;;;;;;2.58;1.95;;;;;;;15.04;79.76;97984.69;5090084;28;20077;-57
2023/04/26 07:02:59;;;;;;;2.08;1.45;;;;;;;15.18;79.84;98007.97;5069125;28;20039;-52
2023/04/26 07:05:25;;;;;;;2.55;1.80;;;;;;;14.89;79.57;97965.81;5056571;28;20423;-53
2023/04/26 07:07:51;;;;;;;3.28;1.85;;;;;;;15.11;79.88;98005.03;5094741;28;20044;-54
2023/04/26 07:10:17;;;;;;;3.13;1.58;;;;;;;15.12;79.66;98009.31;5096778;28;20050;-59
2023/04/26 07:12:43;;;;;;;2.30;1.60;;;;;;;15.04;80.30;97995.16;5069984;28;20044;-61
2023/04/26 07:15:09;;;;;;;3.80;1.80;;;;;;;15.09;80.48;98006.94;5042685;28;20071;-58
2023/04/26 07:17:35;;;;;;;3.13;2.42;;;;;;;15.10;80.82;98006.00;5084699;28;20055;-55
2023/04/26 07:20:01;;;;;;;3.88;2.40;;;;;;;15.19;81.06;98013.09;5099717;28;20515;-54
2023/04/26 07:22:29;;;;;;;2.25;2.03;;;;;;;15.10;81.58;98005.16;5081185;28;20123;-56
2023/04/26 07:24:55;;;;;;;4.72;3.15;;;;;;;15.31;81.83;98007.84;5082018;28;20123;-54
2023/04/26 07:27:21;;;;;;;2.38;1.90;;;;;;;15.39;82.06;98016.72;5086997;28;20040;-53
2023/04/26 07:29:47;;;;;;;8.48;2.50;;;;;;;15.46;81.94;98020.53;5060579;28;20092;-57
2023/04/26 07:32:14;;;;;;;3.03;2.33;;;;;;;15.54;82.07;98022.59;5086827;28;20040;-55
2023/04/26 07:34:40;;;;;;;3.65;1.92;;;;;;;15.47;80.90;98021.38;5068909;28;20152;-53
2023/04/26 07:37:06;;;;;;;4.68;2.35;;;;;;;15.43;80.78;98027.81;5078064;28;20116;-57
2023/04/26 07:39:31;;;;;;;3.80;2.05;;;;;;;15.42;81.41;98024.38;5065259;28;20036;-56
2023/04/26 07:41:57;;;;;;;2.97;2.17;;;;;;;15.49;81.62;98027.31;5102871;28;20063;-57
2023/04/26 07:44:23;;;;;;;2.58;2.13;;;;;;;15.49;81.42;98012.41;5037615;28;1322337;-54
2023/04/26 07:46:50;;;;;;;3.55;2.08;;;;;;;15.76;81.06;98025.09;5083561;28;20048;-55
2023/04/26 07:49:16;;;;;;;3.38;2.15;;;;;;;15.81;80.76;98033.41;5100658;27;20625;-54
2023/04/26 07:51:43;;;;;;;6.57;2.83;;;;;;;15.82;80.48;98026.38;5085321;28;20070;-53
2023/04/26 07:54:09;;;;;;;3.88;2.33;;;;;;;15.84;80.38;98027.09;5081848;28;20082;-53
2023/04/26 07:56:35;;;;;;;2.45;2.17;;;;;;;15.89;80.23;98033.63;5078677;28;20375;-55
2023/04/26 07:59:02;;;;;;;4.22;2.60;;;;;;;15.84;79.77;98027.09;5101175;28;20515;-53
2023/04/26 08:01:28;;;;;;;3.90;2.55;;;;;;;15.90;78.92;98037.09;5040591;28;20047;-51
2023/04/26 08:03:54;;;;;;;3.13;2.17;;;;;;;15.83;78.78;98009.72;5074859;28;20028;-56
2023/04/26 08:06:21;;;;;;;2.53;2.20;;;;;;;15.92;79.00;98015.03;5080103;28;20040;-53
2023/04/26 08:08:49;;;;;;;2.10;1.90;;;;;;;16.04;78.12;98037.59;5084492;28;20089;-55
2023/04/26 08:11:16;;;;;;;3.27;2.17;;;;;;;15.97;77.86;98019.88;5085804;28;20074;-55
2023/04/26 08:13:45;;;;;;;4.20;2.20;;;;;;;16.21;77.58;98038.84;5052444;28;20495;-52
2023/04/26 08:16:11;;;;;;;;;;;;;;;16.35;77.13;98046.38;5082974;28;20044;-52
2023/04/26 08:18:37;;;;;;;2.75;1.90;;;;;;;16.43;76.35;98038.66;5068667;28;19985;-54
2023/04/26 08:21:02;;;;;;;3.03;2.08;;;;;;;16.27;75.60;98047.97;5064162;28;20073;-55
2023/04/26 08:23:33;;;;;;;4.28;2.63;;;;;;;16.19;75.12;98053.84;5097062;27;20093;-53
2023/04/26 08:25:59;;;;;;;2.55;2.35;;;;;;;16.17;75.20;98061.03;5084878;28;20465;-52
2023/04/26 08:28:25;;;;;;;2.75;2.35;;;;;;;16.15;75.21;98031.47;5086530;28;20051;-50
2023/04/26 08:30:51;;;;;;;4.35;2.40;;;;;;;16.27;74.44;98055.84;5067272;28;20043;-48
2023/04/26 08:33:18;;;;;;;2.83;2.45;;;;;;;16.40;74.13;98053.84;5066858;28;20032;-47
2023/04/26 08:35:44;;;;;;;4.97;3.08;;;;;;;16.33;73.39;98011.56;5098230;28;20072;-48
2023/04/26 08:38:10;;;;;;;3.83;2.80;;;;;;;16.58;72.68;98044.44;5085064;28;20035;-49
2023/04/26 08:40:37;;;;;;;5.47;2.80;;;;;;;16.72;72.22;98052.00;5085551;28;20063;-46
2023/04/26 08:43:03;;;;;;;6.05;3.30;;;;;;;16.83;71.91;98056.31;5081344;28;20473;-47
2023/04/26 08:45:30;;;;;;;2.90;2.55;;;;;;;16.93;71.27;98059.81;5089879;28;20058;-50
2023/04/26 08:48:00;;;;;;;3.15;2.40;;;;;;;16.89;70.86;98048.75;5100060;28;20067;-50
2023/04/26 08:50:27;;;;;;;3.00;2.63;;;;;;;16.91;70.13;98062.56;5085987;28;20040;-53
2023/04/26 08:52:53;;;;;;;3.10;2.45;;;;;;;16.70;69.36;98024.22;5064704;28;20535;-54
2023/04/26 08:55:20;;;;;;;2.95;2.65;;;;;;;16.87;69.79;98063.81;5075145;28;20036;-49
2023/04/26 08:57:47;;;;;;;3.30;2.80;;;;;;;16.84;69.69;98058.81;5080191;28;20074;-48
2023/04/26 09:00:14;;;;;;;4.35;2.58;;;;;;;16.83;70.09;98066.81;5066983;28;20059;-47
2023/04/26 09:02:45;;;;;;;4.07;2.63;;;;;;;16.84;69.96;98065.88;5077833;28;20059;-49
2023/04/26 09:05:11;;;;;;;3.88;2.80;;;;;;;16.84;69.88;98058.00;5066827;28;20109;-51
2023/04/26 09:07:43;;;;;;;3.05;2.50;;;;;;;16.82;69.25;98057.28;5064125;28;20071;-44
2023/04/26 09:10:11;;;;;;;3.20;2.90;;;;;;;16.79;69.55;98060.19;5094030;28;20043;-48
2023/04/26 09:12:37;;;;;;;3.65;2.80;;;;;;;16.70;69.88;98067.03;5068415;28;20712;-47
2023/04/26 09:15:06;;;;;;;3.22;2.92;;;;;;;16.70;69.94;98066.19;5086895;28;20063;-50
2023/04/26 09:17:37;;;;;;;6.45;3.63;;;;;;;16.61;69.93;98059.94;5053041;28;20423;-50
2023/04/26 09:20:24;;;;;;;4.43;2.80;;;;;;;16.75;70.04;98077.97;5060291;28;20738;-50
2023/04/26 09:22:52;;;;;;;4.80;3.53;;;;;;;16.78;70.25;98079.50;5085142;28;20055;-49
2023/04/26 09:25:25;;;;;;;5.20;3.58;;;;;;;16.64;70.16;98072.81;5097452;28;20036;-49
2023/04/26 09:27:51;;;;;;;3.80;3.05;;;;;;;16.64;70.31;98082.47;5084014;28;20040;-50
2023/04/26 09:30:19;;;;;;;4.10;3.70;;;;;;;16.60;70.48;98081.06;5083357;28;20435;-48
2023/04/26 09:33:05;;;;;;;5.43;3.70;;;;;;;16.44;70.89;98084.94;5092491;28;20395;-48
2023/04/26 09:35:41;;;;;;;4.18;3.70;;;;;;;16.31;71.02;98081.69;5086546;28;20105;-48
2023/04/26 09:38:11;;;;;;;6.32;3.90;;;;;;;16.20;71.97;98091.38;5083731;28;20130;-49
2023/04/26 09:40:39;;;;;;;9.30;4.70;;;;;;;16.02;72.61;98081.44;5096598;28;20044;-48
2023/04/26 09:43:26;;;;;;;10.23;4.93;;;;;;;15.84;73.16;98082.13;5071166;28;20101;-52
2023/04/26 09:45:53;;;;;;;4.82;4.20;;;;;;;15.62;73.70;98086.47;5078615;28;20052;-47
2023/04/26 09:48:33;;;;;;;5.00;4.38;;;;;;;15.56;73.78;98081.72;5085552;28;20036;-52
2023/04/26 09:51:13;;;;;;;5.55;4.90;;;;;;;15.42;73.79;98062.81;5083379;28;20121;-51
2023/04/26 09:53:47;;;;;;;6.03;5.00;;;;;;;15.70;74.30;98092.91;5094878;28;20067;-53
2023/04/26 09:56:14;;;;;;;5.28;4.55;;;;;;;15.91;74.02;98091.16;5083066;28;20378;-52
2023/04/26 09:58:47;;;;;;;6.03;4.95;;;;;;;16.00;73.49;98101.72;5082919;28;20051;-46
2023/04/26 10:01:16;;;;;;;5.45;3.80;;;;;;;16.17;73.08;98094.28;5063957;28;20036;-49
2023/04/26 10:03:43;;;;;;;5.25;4.22;;;;;;;16.25;72.76;98086.59;5087019;28;20028;-47
2023/04/26 10:06:11;;;;;;;5.03;3.78;;;;;;;16.26;71.78;98096.97;5078129;28;20552;-46
2023/04/26 10:08:37;;;;;;;4.28;3.88;;;;;;;16.32;70.96;98096.47;5087224;28;20520;-46
2023/04/26 10:11:06;;;;;;;6.60;4.07;;;;;;;16.44;70.73;98105.09;5087767;28;20046;-48
2023/04/26 10:13:33;;;;;;;4.10;3.70;;;;;;;16.57;70.07;98108.38;5067302;28;20036;-49
2023/04/26 10:16:00;;;;;;;5.70;4.10;;;;;;;16.61;69.31;98090.59;5085638;28;20064;-48
2023/04/26 10:18:27;;;;;;;4.65;4.15;;;;;;;16.82;68.83;98115.03;5094981;28;20051;-51
2023/04/26 10:20:59;;;;;;;5.53;4.38;;;;;;;16.97;68.65;98107.63;5079123;28;20466;-51
2023/04/26 10:23:26;;;;;;;5.97;4.70;;;;;;;16.71;67.86;98071.31;5081457;28;20040;-48
2023/04/26 10:25:53;;;;;;;5.47;4.90;;;;;;;17.01;67.61;98112.50;5090530;28;20036;-52
2023/04/26 10:28:39;;;;;;;5.50;4.88;;;;;;;16.68;67.66;98112.75;5070556;28;20497;-50
2023/04/26 10:31:08;;;;;;;7.10;5.05;;;;;;;16.45;67.73;98114.63;5079274;28;20174;-49
2023/04/26 10:33:33;;;;;;;6.60;5.65;;;;;;;16.27;68.73;98122.25;5075582;28;20132;-51
2023/04/26 10:36:06;;;;;;;6.13;4.88;;;;;;;16.06;69.93;98126.63;5092105;28;20456;-52
2023/04/26 10:38:32;;;;;;;6.20;4.22;;;;;;;16.03;70.06;98116.38;5083282;28;20527;-50
2023/04/26 10:41:26;;;;;;;6.10;4.25;;;;;;;16.60;69.25;98128.28;5082774;28;20059;-47
2023/04/26 10:43:52;;;;;;;6.38;4.10;;;;;;;16.77;68.21;98118.03;5075632;28;20093;-47
2023/04/26 10:46:38;;;;;;;4.07;3.67;;;;;;;16.81;67.23;98108.94;5085817;28;20043;-49
2023/04/26 10:49:17;;;;;;;6.65;3.90;;;;;;;16.85;67.16;98133.16;5090859;28;20051;-47
2023/04/26 10:52:11;;;;;;;3.45;3.08;;;;;;;16.80;66.64;98137.97;5087372;28;20051;-49
2023/04/26 10:54:50;;;;;;;4.22;3.38;;;;;;;16.87;66.70;98132.03;5083475;28;20097;-49
2023/04/26 10:57:17;;;;;;;4.78;2.70;;;;;;;16.96;66.09;98134.88;5094109;28;20044;-46
2023/04/26 11:00:25;;;;;;;3.60;3.25;;;;;;;17.46;65.01;98135.75;5087789;28;20055;-48
2023/04/26 11:02:51;;;;;;;4.70;2.30;;;;;;;18.91;62.20;98134.91;5023735;28;20045;-51
2023/04/26 11:05:49;;;;;;;2.22;1.92;;;;;;;20.37;56.04;98141.94;5084881;28;20489;-46
2023/04/26 11:08:35;;;;;;;2.70;1.60;;;;;;;22.22;50.57;98142.13;5079615;28;20048;-48
2023/04/26 11:11:01;;;;;;;1.60;1.45;;;;;;;23.54;48.85;98140.03;5071011;28;20040;-50
2023/04/26 11:13:40;;;;;;;3.63;1.90;;;;;;;24.61;46.71;98107.31;5092825;28;20070;-48
2023/04/26 11:16:07;;;;;;;2.95;1.60;;;;;;;24.52;46.32;98141.13;5075467;28;20032;-47
2023/04/26 11:18:34;;;;;;;2.50;1.50;;;;;;;23.72;47.29;98147.72;5081178;28;20036;-46
2023/04/26 11:21:01;;;;;;;1.65;1.55;;;;;;;23.06;47.77;98144.44;5084707;28;20067;-46
2023/04/26 11:23:28;;;;;;;2.35;1.80;;;;;;;22.66;47.74;98133.88;5083349;28;20504;-49
2023/04/26 11:25:59;;;;;;;2.65;1.85;;;;;;;21.81;48.35;98127.13;5102831;27;20079;-51
2023/04/26 11:28:25;;;;;;;2.17;1.67;;;;;;;21.76;48.92;98150.59;5085535;28;20120;-50
2023/04/26 11:30:51;;;;;;;2.15;1.45;;;;;;;21.62;49.31;98146.72;5089983;28;20147;-49
2023/04/26 11:33:21;;;;;;;2.83;1.40;;;;;;;21.38;48.94;98141.34;5082873;28;20045;-53
2023/04/26 11:35:47;;;;;;;3.03;1.50;;;;;;;21.38;48.68;98159.84;5085297;28;20040;-44